CheckWX is a tool to help pilots better visualize weather data.  It is not intended as a substitute for an official pre-flight weather briefing.

20:24:55 UTC

KPBG METAR
Plattsburgh International Airport
Plattsburgh, New York, USA
Current

25 mins ago

KPBG 202000Z AUTO 04003KT 10SM SCT007 OVC015 07/06 A2981 RMK AO2 T00720061
Observed
Apr-20 @ 20:00 UTC
Wind
  • 040° at 3 KTS
Visibility
10 SM
Flight Rules
MVFR
Cloud Levels
  • Scattered at 700' AGL
  • Overcast at 1,500' AGL
Temperature
C / 45°F
Dewpoint
C / 43°F
Humidity
93%
Altimeter
29.81" Hg
Pressure
1009.52 hPa
Previous

32 mins ago

KPBG 201953Z AUTO 00000KT 10SM BKN007 OVC017 07/06 A2981 RMK AO2 RAE21 SLP096 P0001 T00670061
Observed
Apr-20 @ 19:53 UTC
Visibility
10 SM
Flight Rules
IFR
Cloud Levels
  • Broken at 700' AGL
  • Overcast at 1,700' AGL
Temperature
C / 45°F
Dewpoint
C / 43°F
Humidity
93%
Altimeter
29.81" Hg
Pressure
1009.52 hPa
Current Rain
0.01"
Previous

2 hours ago

KPBG 201853Z AUTO 08003KT 7SM -RA OVC009 07/06 A2983 RMK AO2 RAB23 SLP102 P0001 T00670056
Observed
Apr-20 @ 18:53 UTC
Wind
  • 080° at 3 KTS
Visibility
7 SM
Flight Rules
IFR
Conditions
Light Rain
Cloud Levels
  • Overcast at 900' AGL
Temperature
C / 45°F
Dewpoint
C / 43°F
Humidity
93%
Altimeter
29.83" Hg
Pressure
1010.12 hPa
Current Rain
0.01"